Time;durP1;ratioP1;P1;durP2;ratioP2;P2;SDS_P1;SDS_P2;PMS_P1;PMS_P2;Temp;Humidity;BMP_temperature;BMP_pressure;BME280_temperature;BME280_humidity;BME280_pressure;Samples;Min_cycle;Max_cycle;Signal;HPM_P1;HPM_P2
2023/02/25 00:00:18;;;;;;;15.23;6.03;;;3.30;99.90;;;;;;5076776;28;20557;-62
2023/02/25 00:02:46;;;;;;;15.00;4.80;;;3.30;99.90;;;;;;5078796;28;20458;-62
2023/02/25 00:05:16;;;;;;;14.70;4.77;;;3.30;99.90;;;;;;5078017;28;20481;-61
2023/02/25 00:07:43;;;;;;;17.20;5.10;;;3.30;99.90;;;;;;5078569;28;20468;-61
2023/02/25 00:10:13;;;;;;;15.97;4.90;;;3.30;99.90;;;;;;5079560;28;20475;-61
2023/02/25 00:12:40;;;;;;;9.77;4.60;;;3.20;99.90;;;;;;5075861;28;20454;-61
2023/02/25 00:15:08;;;;;;;13.63;4.63;;;3.20;99.90;;;;;;5078160;28;20484;-61
2023/02/25 00:17:38;;;;;;;16.00;4.60;;;3.20;99.90;;;;;;5078967;28;20457;-61
2023/02/25 00:20:08;;;;;;;11.57;4.47;;;3.20;99.90;;;;;;5079096;28;20465;-61
2023/02/25 00:22:37;;;;;;;14.90;4.10;;;3.10;99.90;;;;;;5077685;28;20941;-61
2023/02/25 00:25:05;;;;;;;18.83;5.30;;;3.10;99.90;;;;;;5077248;28;20457;-61
2023/02/25 00:27:32;;;;;;;17.80;4.53;;;3.20;99.90;;;;;;5078113;28;20902;-61
2023/02/25 00:30:00;;;;;;;12.90;4.83;;;3.10;99.90;;;;;;5078577;28;20508;-61
2023/02/25 00:32:27;;;;;;;13.43;4.67;;;3.10;99.90;;;;;;5078713;28;20471;-61
2023/02/25 00:34:54;;;;;;;20.03;6.23;;;3.10;99.90;;;;;;5078795;28;20547;-61
2023/02/25 00:37:21;;;;;;;13.20;3.97;;;3.10;99.90;;;;;;5078567;28;20472;-61
2023/02/25 00:39:50;;;;;;;11.10;3.43;;;3.10;99.90;;;;;;5078724;28;20559;-61
2023/02/25 00:42:18;;;;;;;16.00;4.30;;;3.10;99.90;;;;;;5077298;28;20579;-61
2023/02/25 00:44:47;;;;;;;9.63;4.67;;;3.20;99.90;;;;;;5076190;28;20496;-61
2023/02/25 00:47:15;;;;;;;9.30;3.80;;;3.20;99.90;;;;;;5075170;28;20470;-61
2023/02/25 00:49:42;;;;;;;15.87;4.57;;;3.20;99.90;;;;;;5077896;28;20888;-61
2023/02/25 00:52:09;;;;;;;12.40;4.50;;;3.10;99.90;;;;;;5077673;28;20472;-61
2023/02/25 00:54:38;;;;;;;14.77;6.50;;;3.20;99.90;;;;;;5077144;28;20465;-61
2023/02/25 00:57:07;;;;;;;8.30;4.40;;;3.20;99.90;;;;;;5077929;28;20560;-61
2023/02/25 00:59:34;;;;;;;16.17;4.73;;;3.20;99.90;;;;;;5077635;28;20479;-61
2023/02/25 01:02:02;;;;;;;20.83;4.90;;;3.30;99.90;;;;;;5077087;28;20945;-61
2023/02/25 01:04:29;;;;;;;19.87;5.03;;;3.20;99.90;;;;;;5076318;28;20476;-61
2023/02/25 01:06:56;;;;;;;15.90;4.53;;;3.30;99.90;;;;;;5077920;28;20485;-61
2023/02/25 01:09:23;;;;;;;14.53;4.60;;;3.20;99.90;;;;;;5077020;28;20501;-61
2023/02/25 01:11:52;;;;;;;16.33;6.20;;;3.20;99.90;;;;;;5078283;28;20544;-61
2023/02/25 01:14:23;;;;;;;16.33;6.07;;;3.20;99.90;;;;;;5074493;28;20473;-61
2023/02/25 01:16:52;;;;;;;16.63;5.90;;;3.30;99.90;;;;;;5076914;28;20473;-61
2023/02/25 01:19:21;;;;;;;14.17;5.10;;;3.30;99.90;;;;;;5067646;28;20474;-61
2023/02/25 01:21:50;;;;;;;19.10;6.03;;;3.30;99.90;;;;;;5058645;28;20516;-61
2023/02/25 01:24:20;;;;;;;18.50;6.03;;;3.30;99.90;;;;;;5061382;28;20469;-61
2023/02/25 01:26:50;;;;;;;16.70;5.37;;;3.20;99.90;;;;;;5073335;28;20479;-61
2023/02/25 01:29:22;;;;;;;13.70;5.80;;;3.30;99.90;;;;;;5076642;28;20778;-61
2023/02/25 01:31:52;;;;;;;14.30;5.03;;;3.30;99.90;;;;;;5077667;28;20870;-61
2023/02/25 01:34:20;;;;;;;19.77;6.00;;;3.30;99.90;;;;;;5077596;28;20465;-61
2023/02/25 01:36:48;;;;;;;18.80;6.87;;;3.30;99.90;;;;;;5077742;28;20950;-61
2023/02/25 01:39:17;;;;;;;15.00;5.60;;;3.20;99.90;;;;;;5077545;28;20465;-61
2023/02/25 01:41:47;;;;;;;13.00;6.20;;;3.30;99.90;;;;;;5077636;28;20497;-61
2023/02/25 01:44:16;;;;;;;14.27;7.27;;;3.20;99.90;;;;;;5077969;28;20881;-61
2023/02/25 01:46:46;;;;;;;16.83;7.10;;;3.30;99.90;;;;;;5077591;28;20461;-61
2023/02/25 01:49:19;;;;;;;17.50;9.03;;;3.20;99.90;;;;;;5077271;28;20461;-61
2023/02/25 01:51:48;;;;;;;19.13;8.70;;;3.20;99.90;;;;;;5077447;28;20457;-61
2023/02/25 01:54:17;;;;;;;19.50;8.87;;;3.30;99.90;;;;;;5077286;28;20464;-61
2023/02/25 01:56:49;;;;;;;14.20;9.20;;;3.20;99.90;;;;;;5077167;28;20471;-61
2023/02/25 01:59:18;;;;;;;22.73;10.07;;;3.30;99.90;;;;;;5077267;28;20440;-61
2023/02/25 02:01:47;;;;;;;14.70;8.90;;;3.20;99.90;;;;;;5077331;28;20930;-61
2023/02/25 02:04:16;;;;;;;17.63;9.80;;;3.20;99.90;;;;;;5077317;28;20472;-62
2023/02/25 02:06:46;;;;;;;27.43;11.30;;;3.20;99.90;;;;;;5077227;28;20481;-61
2023/02/25 02:09:15;;;;;;;18.57;10.07;;;3.20;99.90;;;;;;5076578;28;20468;-62
2023/02/25 02:11:42;;;;;;;19.70;11.30;;;3.20;99.90;;;;;;5077457;28;20950;-61
2023/02/25 02:14:14;;;;;;;15.97;10.87;;;3.20;99.90;;;;;;5077269;28;20914;-61
2023/02/25 02:17:13;;;;;;;19.97;12.70;;;3.20;99.90;;;;;;5076983;28;20825;-61
2023/02/25 02:20:13;;;;;;;19.33;11.10;;;3.20;99.90;;;;;;5077187;28;20461;-61
2023/02/25 02:23:03;;;;;;;17.23;10.97;;;3.10;99.90;;;;;;5076941;28;20546;-62
2023/02/25 02:26:19;;;;;;;14.40;10.57;;;3.20;99.90;;;;;;5070207;28;20444;-61
2023/02/25 02:29:16;;;;;;;16.67;9.43;;;3.20;99.90;;;;;;5034914;28;20434;-61
2023/02/25 02:31:57;;;;;;;17.33;9.80;;;3.20;99.90;;;;;;5077343;28;20741;-61
2023/02/25 02:34:37;;;;;;;24.67;9.53;;;3.20;99.90;;;;;;5077624;28;20512;-62
2023/02/25 02:37:18;;;;;;;11.37;8.43;;;3.10;99.90;;;;;;5077152;28;20462;-61
2023/02/25 02:39:54;;;;;;;11.93;7.80;;;3.20;99.90;;;;;;5076910;28;20465;-62
2023/02/25 02:42:31;;;;;;;21.37;9.60;;;3.10;99.90;;;;;;5076974;28;20790;-62
2023/02/25 02:45:04;;;;;;;22.60;10.63;;;3.20;99.90;;;;;;5076746;28;20503;-62
2023/02/25 02:47:36;;;;;;;16.00;9.47;;;3.20;99.90;;;;;;5079243;28;20882;-61
2023/02/25 02:50:06;;;;;;;20.00;11.00;;;3.20;99.90;;;;;;5080612;28;20461;-61
2023/02/25 02:52:38;;;;;;;18.10;9.97;;;3.20;99.90;;;;;;5080966;28;20454;-60
2023/02/25 02:55:11;;;;;;;15.10;9.77;;;3.20;99.90;;;;;;5080198;28;20560;-61
2023/02/25 02:57:41;;;;;;;18.90;9.40;;;3.10;99.90;;;;;;5080601;28;20465;-61
2023/02/25 03:00:16;;;;;;;20.40;10.43;;;3.20;99.90;;;;;;5080668;28;20494;-61
2023/02/25 03:02:50;;;;;;;15.80;9.60;;;3.10;99.90;;;;;;5080437;28;20514;-61
2023/02/25 03:05:19;;;;;;;19.07;9.60;;;3.10;99.90;;;;;;5079714;28;20465;-61
2023/02/25 03:07:52;;;;;;;25.67;9.50;;;3.20;99.90;;;;;;5080170;28;20489;-61
2023/02/25 03:10:21;;;;;;;22.30;9.50;;;3.20;99.90;;;;;;5080391;28;20475;-61
2023/02/25 03:12:48;;;;;;;24.33;11.10;;;3.10;99.90;;;;;;5079978;28;20485;-61
2023/02/25 03:15:16;;;;;;;21.30;9.17;;;3.10;99.90;;;;;;5080133;28;20488;-61
2023/02/25 03:17:49;;;;;;;16.63;11.27;;;3.10;99.90;;;;;;5080075;28;20450;-61
2023/02/25 03:20:24;;;;;;;20.63;11.23;;;3.10;99.90;;;;;;5079621;28;20468;-61
2023/02/25 03:22:55;;;;;;;18.17;11.10;;;3.00;99.90;;;;;;5078761;28;20575;-61
2023/02/25 03:25:25;;;;;;;19.60;10.07;;;3.00;99.90;;;;;;5078045;28;20560;-61
2023/02/25 03:27:55;;;;;;;28.40;11.63;;;3.00;99.90;;;;;;5078867;28;20522;-61
2023/02/25 03:30:29;;;;;;;24.30;11.30;;;3.00;99.90;;;;;;5080002;28;20468;-61
2023/02/25 03:33:02;;;;;;;18.07;11.70;;;3.00;99.90;;;;;;5076997;28;20470;-61
2023/02/25 03:35:32;;;;;;;21.27;11.53;;;3.00;99.90;;;;;;5079920;28;20916;-61
2023/02/25 03:38:02;;;;;;;25.67;13.17;;;3.00;99.90;;;;;;5079108;28;20480;-61
2023/02/25 03:40:31;;;;;;;20.90;11.93;;;3.00;99.90;;;;;;5079681;28;20457;-61
2023/02/25 03:43:05;;;;;;;22.13;12.77;;;3.00;99.90;;;;;;5080304;28;20497;-61
2023/02/25 03:45:35;;;;;;;27.23;13.97;;;2.90;99.90;;;;;;5080186;28;20493;-61
2023/02/25 03:48:05;;;;;;;21.17;12.50;;;2.90;99.90;;;;;;5077994;28;20466;-61
2023/02/25 03:50:36;;;;;;;26.20;14.80;;;3.00;99.90;;;;;;5078641;28;20766;-61
2023/02/25 03:53:04;;;;;;;19.70;13.60;;;3.00;99.90;;;;;;5078611;28;20501;-61
2023/02/25 03:55:31;;;;;;;25.97;13.80;;;3.00;99.90;;;;;;5077429;28;20461;-61
2023/02/25 03:57:58;;;;;;;24.47;15.70;;;3.00;99.90;;;;;;5078169;28;20555;-61
2023/02/25 04:00:28;;;;;;;22.60;12.83;;;3.00;99.90;;;;;;5079234;28;20447;-62
2023/02/25 04:02:56;;;;;;;19.60;12.30;;;3.00;99.90;;;;;;5078239;28;20575;-61
2023/02/25 04:05:26;;;;;;;17.67;12.90;;;3.10;99.90;;;;;;5079083;28;20491;-61
2023/02/25 04:07:53;;;;;;;16.50;12.63;;;3.10;99.90;;;;;;5076454;28;20474;-62
2023/02/25 04:10:21;;;;;;;17.80;11.07;;;3.00;99.90;;;;;;5077801;28;20564;-61
2023/02/25 04:12:49;;;;;;;23.63;10.80;;;3.00;99.90;;;;;;5078780;28;20549;-62
2023/02/25 04:15:17;;;;;;;23.00;12.60;;;3.00;99.90;;;;;;5076957;28;20473;-61
2023/02/25 04:17:45;;;;;;;20.97;11.00;;;3.00;99.90;;;;;;5077175;28;20522;-63
2023/02/25 04:20:13;;;;;;;19.87;12.17;;;3.00;99.90;;;;;;5077751;28;20472;-62
2023/02/25 04:22:41;;;;;;;18.23;12.83;;;2.90;99.90;;;;;;5076580;28;20494;-62
2023/02/25 04:25:09;;;;;;;20.93;13.10;;;3.00;99.90;;;;;;5077759;28;20465;-61
2023/02/25 04:27:36;;;;;;;28.47;14.23;;;3.00;99.90;;;;;;5077324;28;20771;-62
2023/02/25 04:30:05;;;;;;;22.53;13.67;;;3.00;99.90;;;;;;5074230;28;20469;-61
2023/02/25 04:32:34;;;;;;;23.80;13.07;;;3.00;99.90;;;;;;5063817;28;20470;-62
2023/02/25 04:35:02;;;;;;;21.37;14.37;;;3.00;99.90;;;;;;5077043;28;20951;-61
2023/02/25 04:37:29;;;;;;;27.63;14.50;;;3.00;99.90;;;;;;5076665;28;20477;-61
2023/02/25 04:39:59;;;;;;;26.03;14.17;;;2.90;99.90;;;;;;5078581;28;20563;-61
2023/02/25 04:42:26;;;;;;;29.70;14.70;;;3.00;99.90;;;;;;5076960;28;20481;-61
2023/02/25 04:44:54;;;;;;;25.10;14.70;;;3.00;99.90;;;;;;5078129;28;20461;-62
2023/02/25 04:47:22;;;;;;;24.77;13.90;;;3.00;99.90;;;;;;5077488;28;20556;-61
2023/02/25 04:49:49;;;;;;;30.57;14.73;;;3.00;99.90;;;;;;5077123;28;20484;-62
2023/02/25 04:52:16;;;;;;;36.13;13.33;;;3.00;99.90;;;;;;5077163;28;20461;-62
2023/02/25 04:54:43;;;;;;;31.77;14.07;;;3.00;99.90;;;;;;5078140;28;20762;-62
2023/02/25 04:57:13;;;;;;;28.37;13.90;;;3.00;99.90;;;;;;5076773;28;20555;-62
2023/02/25 04:59:40;;;;;;;25.17;11.17;;;3.00;99.90;;;;;;5077976;28;20535;-61
2023/02/25 05:02:08;;;;;;;22.83;10.10;;;3.00;99.90;;;;;;5076114;28;20499;-61
2023/02/25 05:04:35;;;;;;;16.70;9.90;;;2.90;99.90;;;;;;5076446;28;20473;-61
2023/02/25 05:07:03;;;;;;;20.57;9.37;;;3.00;99.90;;;;;;5076040;28;20672;-62
2023/02/25 05:09:30;;;;;;;20.80;7.57;;;2.90;99.90;;;;;;5077393;28;20465;-61
2023/02/25 05:11:57;;;;;;;19.50;7.67;;;2.90;99.90;;;;;;5076810;28;20874;-61
2023/02/25 05:14:28;;;;;;;25.90;7.57;;;2.90;99.90;;;;;;5077486;28;20465;-62
2023/02/25 05:16:55;;;;;;;14.83;8.17;;;3.00;99.90;;;;;;5057774;28;20552;-61
2023/02/25 05:19:24;;;;;;;17.30;7.87;;;3.00;99.90;;;;;;5067671;28;20771;-61
2023/02/25 05:21:52;;;;;;;18.23;7.70;;;3.00;99.90;;;;;;5077003;28;20480;-61
2023/02/25 05:24:22;;;;;;;17.37;7.10;;;2.90;99.90;;;;;;5078130;28;20461;-61
2023/02/25 05:26:49;;;;;;;15.20;7.90;;;3.00;99.90;;;;;;5077584;28;20472;-61
2023/02/25 05:29:17;;;;;;;14.33;7.33;;;3.00;99.90;;;;;;5077607;28;20465;-61
2023/02/25 05:31:46;;;;;;;28.00;9.20;;;3.00;99.90;;;;;;5075782;28;20465;-61
2023/02/25 05:34:16;;;;;;;17.60;7.20;;;3.00;99.90;;;;;;5076561;28;20829;-61
2023/02/25 05:36:45;;;;;;;32.43;8.27;;;3.00;99.90;;;;;;5075093;28;20473;-61
2023/02/25 05:39:13;;;;;;;22.00;7.93;;;3.00;99.90;;;;;;5077675;28;20488;-61
2023/02/25 05:41:40;;;;;;;18.23;6.80;;;2.90;99.90;;;;;;5076213;28;20478;-61
2023/02/25 05:44:08;;;;;;;17.70;6.27;;;3.00;99.90;;;;;;5076983;28;20877;-61
2023/02/25 05:46:35;;;;;;;14.20;4.73;;;3.00;99.90;;;;;;5077263;28;20867;-60
2023/02/25 05:49:04;;;;;;;10.23;4.90;;;3.00;99.90;;;;;;5077458;28;20874;-61
2023/02/25 05:51:31;;;;;;;16.13;6.77;;;3.00;99.90;;;;;;5077512;28;20461;-61
2023/02/25 05:53:59;;;;;;;14.30;5.30;;;3.00;99.90;;;;;;5077651;28;20461;-61
2023/02/25 05:56:26;;;;;;;17.77;4.70;;;3.00;99.90;;;;;;5077231;28;20465;-61
2023/02/25 05:58:54;;;;;;;21.00;5.40;;;3.00;99.90;;;;;;5077131;28;20488;-60
2023/02/25 06:01:23;;;;;;;10.70;4.17;;;3.00;99.90;;;;;;5075342;28;21221;-61
2023/02/25 06:03:51;;;;;;;13.77;4.77;;;3.10;99.90;;;;;;5076370;28;20485;-61
2023/02/25 06:06:22;;;;;;;16.03;5.53;;;3.00;99.90;;;;;;5056898;28;20560;-61
2023/02/25 06:08:50;;;;;;;20.77;5.90;;;3.00;99.90;;;;;;5077070;28;20573;-61
2023/02/25 06:11:19;;;;;;;15.57;6.10;;;3.00;99.90;;;;;;5076461;28;20466;-61
2023/02/25 06:13:48;;;;;;;15.73;5.33;;;3.00;99.90;;;;;;5077551;28;20903;-61
2023/02/25 06:16:16;;;;;;;13.63;4.87;;;3.00;99.90;;;;;;5077299;28;20556;-61
2023/02/25 06:18:43;;;;;;;14.40;5.77;;;3.00;99.90;;;;;;5075272;28;20464;-61
2023/02/25 06:21:13;;;;;;;18.43;6.47;;;3.10;99.90;;;;;;5074349;28;20777;-61
2023/02/25 06:23:43;;;;;;;19.67;5.10;;;3.10;99.90;;;;;;5079949;28;20949;-61
2023/02/25 06:26:12;;;;;;;17.17;6.00;;;3.10;99.90;;;;;;5080667;28;20449;-61
2023/02/25 06:28:40;;;;;;;14.00;6.47;;;3.10;99.90;;;;;;5080973;28;20595;-61
2023/02/25 06:31:09;;;;;;;14.40;5.63;;;3.10;99.90;;;;;;5079110;28;20762;-61
2023/02/25 06:33:36;;;;;;;18.37;7.27;;;3.10;99.90;;;;;;5080649;28;20787;-61
2023/02/25 06:36:05;;;;;;;13.17;7.30;;;3.10;99.90;;;;;;5079887;28;20472;-61
2023/02/25 06:38:32;;;;;;;14.67;7.77;;;3.10;99.90;;;;;;5079172;28;20915;-61
2023/02/25 06:41:05;;;;;;;19.50;8.60;;;3.10;99.90;;;;;;5079224;28;20473;-61
2023/02/25 06:43:32;;;;;;;26.03;10.40;;;3.10;99.90;;;;;;5081019;28;20499;-62
2023/02/25 06:45:59;;;;;;;20.33;9.07;;;3.10;99.90;;;;;;5081098;28;20465;-62
2023/02/25 06:48:26;;;;;;;23.03;10.30;;;3.10;99.90;;;;;;5081035;28;20469;-62
2023/02/25 06:50:53;;;;;;;18.97;7.87;;;3.10;99.90;;;;;;5080507;28;20468;-61
2023/02/25 06:53:21;;;;;;;16.77;7.37;;;3.10;99.90;;;;;;5080290;28;20456;-61
2023/02/25 06:55:48;;;;;;;14.30;6.43;;;3.10;99.90;;;;;;5079831;28;20523;-62
2023/02/25 06:58:17;;;;;;;12.30;5.93;;;3.10;99.90;;;;;;5079619;28;20718;-62
2023/02/25 07:00:44;;;;;;;17.70;6.73;;;3.10;99.90;;;;;;5077413;28;20530;-61
2023/02/25 07:03:12;;;;;;;23.17;6.70;;;3.10;99.90;;;;;;5078656;28;20504;-62
2023/02/25 07:05:39;;;;;;;18.47;6.53;;;3.10;99.90;;;;;;5078191;28;20493;-61
2023/02/25 07:08:06;;;;;;;12.87;5.67;;;3.20;53.90;;;;;;5079039;28;20747;-62
2023/02/25 07:10:34;;;;;;;14.20;4.77;;;3.10;1.00;;;;;;5078149;28;20909;-62
2023/02/25 07:13:01;;;;;;;20.90;5.07;;;3.20;1.00;;;;;;5060367;28;20461;-61
2023/02/25 07:15:30;;;;;;;17.33;5.30;;;3.20;1.00;;;;;;5059770;28;20468;-59
2023/02/25 07:17:57;;;;;;;17.77;4.43;;;3.30;1.00;;;;;;5057864;28;20472;-62
2023/02/25 07:20:24;;;;;;;13.27;4.63;;;3.20;99.90;;;;;;5058380;28;20466;-59
2023/02/25 07:22:51;;;;;;;17.20;4.83;;;3.20;1.00;;;;;;5071607;28;20852;-59
2023/02/25 07:25:18;;;;;;;27.40;6.13;;;3.30;1.00;;;;;;5077629;28;20461;-61
2023/02/25 07:27:46;;;;;;;10.83;4.60;;;3.30;1.00;;;;;;5075707;28;20473;-61
2023/02/25 07:30:14;;;;;;;17.53;5.27;;;3.30;1.00;;;;;;5078177;28;20457;-61
2023/02/25 07:32:43;;;;;;;12.27;4.60;;;3.40;1.00;;;;;;5077731;28;20474;-60
2023/02/25 07:35:10;;;;;;;22.37;4.67;;;3.40;1.00;;;;;;5077261;28;20472;-59
2023/02/25 07:37:38;;;;;;;12.87;4.90;;;3.50;1.00;;;;;;5077666;28;20478;-61
2023/02/25 07:40:11;;;;;;;15.97;4.73;;;3.40;99.90;;;;;;5078444;28;20469;-61
2023/02/25 07:42:40;;;;;;;18.87;5.40;;;3.50;99.90;;;;;;5079171;28;20788;-60
2023/02/25 07:45:09;;;;;;;15.57;6.00;;;3.40;99.90;;;;;;5078319;28;20477;-61
2023/02/25 07:47:36;;;;;;;17.33;5.53;;;3.50;99.90;;;;;;5079457;28;20804;-61
2023/02/25 07:50:06;;;;;;;16.93;5.80;;;3.50;99.90;;;;;;5078099;28;20473;-61
2023/02/25 07:52:33;;;;;;;15.17;6.13;;;3.50;99.90;;;;;;5078971;28;20497;-60
2023/02/25 07:55:00;;;;;;;15.83;5.80;;;3.50;26.00;;;;;;5079184;28;20913;-58
2023/02/25 07:57:28;;;;;;;15.43;6.10;;;3.40;99.90;;;;;;5079190;28;20471;-60
2023/02/25 07:59:57;;;;;;;18.80;6.60;;;3.60;1.00;;;;;;5079162;28;20534;-61
2023/02/25 08:02:24;;;;;;;11.40;5.10;;;3.60;53.00;;;;;;5079171;28;20568;-62
2023/02/25 08:04:51;;;;;;;20.27;6.07;;;3.60;99.90;;;;;;5079191;28;20489;-62
2023/02/25 08:07:20;;;;;;;13.00;5.50;;;3.50;99.90;;;;;;5078114;28;20499;-63
2023/02/25 08:09:47;;;;;;;15.50;5.10;;;3.30;99.90;;;;;;5075482;28;20468;-62
2023/02/25 08:12:14;;;;;;;10.73;4.90;;;3.30;99.90;;;;;;5075296;28;20473;-63
2023/02/25 08:14:41;;;;;;;16.80;5.30;;;3.10;99.90;;;;;;5076334;28;20838;-63
2023/02/25 08:17:09;;;;;;;8.23;4.93;;;3.10;1.00;;;;;;5077496;28;20951;-62
2023/02/25 08:19:36;;;;;;;15.07;5.60;;;3.00;1.00;;;;;;5077753;28;20463;-62
2023/02/25 08:22:03;;;;;;;13.33;5.90;;;3.00;59.30;;;;;;5078973;28;20436;-63
2023/02/25 08:24:32;;;;;;;9.67;5.40;;;3.00;99.90;;;;;;5077911;28;20496;-62
2023/02/25 08:26:59;;;;;;;13.63;6.33;;;3.10;99.90;;;;;;5078438;28;20471;-63
2023/02/25 08:29:26;;;;;;;20.10;8.50;;;3.20;99.90;;;;;;5078650;28;20465;-63
2023/02/25 08:31:53;;;;;;;13.00;5.70;;;3.10;99.90;;;;;;5072249;28;20472;-63
2023/02/25 08:34:21;;;;;;;8.87;5.80;;;3.10;99.90;;;;;;5076236;28;20462;-64
2023/02/25 08:36:48;;;;;;;15.23;6.17;;;3.10;99.90;;;;;;5073289;28;20461;-63
2023/02/25 08:39:15;;;;;;;12.30;6.87;;;3.10;99.90;;;;;;5069332;28;20461;-63
2023/02/25 08:41:44;;;;;;;15.20;5.93;;;3.10;99.90;;;;;;5074283;28;20460;-63
2023/02/25 08:44:11;;;;;;;10.13;5.77;;;3.00;99.90;;;;;;5072764;28;20489;-63
2023/02/25 08:46:39;;;;;;;13.97;6.97;;;3.00;99.90;;;;;;5073329;28;20466;-64
2023/02/25 08:49:06;;;;;;;15.07;7.00;;;3.00;99.90;;;;;;5074166;28;20991;-63
2023/02/25 08:51:34;;;;;;;13.93;7.20;;;3.10;99.90;;;;;;5073630;28;20975;-61
2023/02/25 08:54:03;;;;;;;10.40;6.83;;;3.20;99.90;;;;;;5073111;28;20584;-61
2023/02/25 08:56:31;;;;;;;16.83;7.87;;;3.40;99.90;;;;;;5073052;28;20449;-63
2023/02/25 08:58:59;;;;;;;12.00;8.10;;;3.50;99.90;;;;;;5074072;28;20771;-63
2023/02/25 09:01:39;;;;;;;14.03;7.40;;;3.70;99.90;;;;;;5074372;28;20526;-63
2023/02/25 09:04:07;;;;;;;22.83;8.47;;;3.60;99.90;;;;;;5075074;28;20508;-62
2023/02/25 09:06:34;;;;;;;18.53;8.70;;;3.70;99.90;;;;;;5074410;28;20481;-63
2023/02/25 09:09:01;;;;;;;15.30;8.80;;;3.90;99.90;;;;;;5074892;28;20465;-63
2023/02/25 09:11:28;;;;;;;18.73;10.33;;;3.90;99.90;;;;;;5074672;28;20777;-63
2023/02/25 09:13:55;;;;;;;18.93;9.37;;;3.80;80.20;;;;;;5076446;28;20532;-63
2023/02/25 09:16:24;;;;;;;18.80;12.57;;;4.00;96.80;;;;;;5076329;28;20476;-63
2023/02/25 09:18:52;;;;;;;16.57;11.43;;;3.70;1.00;;;;;;5075910;28;20741;-62
2023/02/25 09:21:19;;;;;;;21.87;11.83;;;3.90;1.00;;;;;;5075806;28;20461;-62
2023/02/25 09:23:50;;;;;;;20.27;9.70;;;4.10;1.00;;;;;;5076169;28;20495;-62
2023/02/25 09:26:18;;;;;;;14.87;10.23;;;4.20;90.60;;;;;;5072114;28;20453;-62
2023/02/25 09:28:48;;;;;;;17.80;11.80;;;4.10;99.90;;;;;;5076201;28;20454;-62
2023/02/25 09:31:15;;;;;;;10.60;7.53;;;4.20;20.20;;;;;;5076251;28;20879;-62
2023/02/25 09:33:44;;;;;;;19.30;9.37;;;4.40;1.00;;;;;;5075133;28;20538;-61
2023/02/25 09:36:13;;;;;;;15.97;7.80;;;4.30;99.90;;;;;;5075784;28;20464;-61
2023/02/25 09:38:42;;;;;;;17.27;10.53;;;4.30;99.90;;;;;;5069120;28;20836;-62
2023/02/25 09:41:27;;;;;;;12.60;7.83;;;4.30;1.00;;;;;;5075841;28;20481;-62
2023/02/25 09:44:04;;;;;;;12.90;8.83;;;4.00;1.00;;;;;;5075345;28;20477;-62
2023/02/25 09:46:34;;;;;;;12.07;8.10;;;3.90;99.90;;;;;;5075940;28;20468;-62
2023/02/25 09:49:09;;;;;;;15.20;8.90;;;3.80;99.90;;;;;;5075449;28;20453;-62
2023/02/25 09:51:39;;;;;;;17.03;13.00;;;3.90;99.90;;;;;;5075041;28;20735;-63
2023/02/25 09:54:16;;;;;;;13.43;8.60;;;3.70;1.00;;;;;;5075916;28;20445;-63
2023/02/25 09:56:46;;;;;;;14.40;8.00;;;3.60;99.90;;;;;;5073565;28;20764;-64
2023/02/25 09:59:16;;;;;;;14.73;6.80;;;3.50;99.90;;;;;;5075929;28;20457;-64
2023/02/25 10:01:48;;;;;;;16.30;6.10;;;3.50;1.00;;;;;;5075506;28;20461;-63
2023/02/25 10:04:24;;;;;;;12.47;7.33;;;3.60;99.90;;;;;;5075144;28;20489;-62
2023/02/25 10:06:54;;;;;;;13.80;7.63;;;3.70;99.90;;;;;;5074070;28;20481;-62
2023/02/25 10:09:29;;;;;;;12.37;7.77;;;3.90;99.90;;;;;;5075734;28;20457;-63
2023/02/25 10:12:05;;;;;;;15.07;6.57;;;4.10;1.00;;;;;;5075207;28;20459;-62
2023/02/25 10:14:48;;;;;;;16.83;6.30;;;4.10;94.60;;;;;;5074156;28;20463;-62
2023/02/25 10:17:26;;;;;;;12.67;4.70;;;4.10;21.30;;;;;;5074126;28;20468;-63
2023/02/25 10:20:17;;;;;;;9.50;5.00;;;4.00;1.00;;;;;;5075341;28;20466;-63
2023/02/25 10:22:53;;;;;;;9.10;4.60;;;4.00;99.90;;;;;;5074097;28;20544;-62
2023/02/25 10:25:24;;;;;;;15.47;4.87;;;4.00;1.00;;;;;;5072961;28;20744;-62
2023/02/25 10:27:56;;;;;;;7.17;4.20;;;3.90;1.00;;;;;;5074745;28;20453;-62
2023/02/25 10:30:30;;;;;;;8.37;4.87;;;4.00;77.50;;;;;;5075365;28;20548;-63
2023/02/25 10:32:57;;;;;;;9.10;5.00;;;4.30;1.00;;;;;;5073200;28;20511;-62
2023/02/25 10:35:28;;;;;;;13.50;4.53;;;4.50;1.00;;;;;;5075836;28;20549;-63
2023/02/25 10:37:55;;;;;;;8.30;4.97;;;5.00;1.00;;;;;;5075807;28;20484;-63
2023/02/25 10:40:27;;;;;;;7.87;3.77;;;4.80;1.00;;;;;;5074946;28;20470;-60
2023/02/25 10:42:58;;;;;;;13.40;5.27;;;4.30;99.90;;;;;;5073364;28;20458;-61
2023/02/25 10:45:27;;;;;;;7.50;3.70;;;4.30;99.90;;;;;;5073687;28;20491;-62
2023/02/25 10:48:01;;;;;;;7.43;3.90;;;4.30;1.00;;;;;;5055080;28;20462;-60
2023/02/25 10:50:30;;;;;;;6.17;3.83;;;4.60;92.00;;;;;;5054898;28;20458;-62
2023/02/25 10:53:02;;;;;;;7.80;3.37;;;4.80;99.90;;;;;;5055398;28;20462;-62
2023/02/25 10:55:51;;;;;;;5.70;3.23;;;4.60;89.20;;;;;;5055260;28;20762;-62
2023/02/25 10:58:26;;;;;;;4.30;2.40;;;4.40;99.90;;;;;;5055121;28;20465;-62
2023/02/25 11:00:59;;;;;;;4.30;2.83;;;3.90;99.90;;;;;;5054437;28;20549;-63
2023/02/25 11:03:30;;;;;;;5.80;2.93;;;3.50;99.90;;;;;;5054251;28;20564;-63
2023/02/25 11:06:12;;;;;;;4.50;2.70;;;3.60;1.00;;;;;;5054651;28;20502;-62
2023/02/25 11:08:40;;;;;;;5.03;2.43;;;3.70;1.00;;;;;;5056093;28;20447;-63
2023/02/25 11:11:16;;;;;;;7.43;3.20;;;3.70;99.90;;;;;;5058413;28;20468;-63
2023/02/25 11:13:53;;;;;;;4.67;2.47;;;4.10;99.90;;;;;;5058767;28;20913;-62
2023/02/25 11:16:20;;;;;;;6.93;2.57;;;4.50;61.30;;;;;;5059623;28;20462;-63
2023/02/25 11:18:53;;;;;;;4.47;2.23;;;4.90;97.60;;;;;;5062397;28;20782;-62
2023/02/25 11:21:31;;;;;;;15.00;8.50;;;5.10;1.00;;;;;;5079449;28;20473;-62
2023/02/25 11:24:01;;;;;;;54.17;28.37;;;4.20;1.00;;;;;;5079424;28;20465;-62
2023/02/25 11:26:32;;;;;;;38.03;23.87;;;4.00;1.00;;;;;;5079682;28;20514;-62
2023/02/25 11:29:02;;;;;;;9.13;4.90;;;4.00;1.00;;;;;;5077178;28;20575;-62
2023/02/25 11:31:34;;;;;;;8.67;2.53;;;4.00;1.00;;;;;;5059888;28;20454;-63
2023/02/25 11:34:05;;;;;;;6.70;3.20;;;4.10;1.00;;;;;;5074818;28;20472;-62
2023/02/25 11:36:37;;;;;;;5.70;2.57;;;4.10;1.00;;;;;;5079595;28;20450;-63
2023/02/25 11:39:20;;;;;;;7.07;2.50;;;4.30;1.00;;;;;;5078579;28;20464;-62
2023/02/25 11:41:49;;;;;;;5.50;2.90;;;4.40;1.00;;;;;;5076941;28;20465;-61
2023/02/25 11:44:28;;;;;;;10.87;3.00;;;3.90;1.00;;;;;;5078978;28;20945;-61
2023/02/25 11:47:07;;;;;;;9.60;2.73;;;3.80;1.00;;;;;;5078048;28;20902;-60
2023/02/25 11:49:59;;;;;;;3.40;2.60;;;3.90;1.00;;;;;;5075932;28;20465;-60
2023/02/25 11:52:37;;;;;;;5.73;2.43;;;4.10;1.00;;;;;;5079528;28;20755;-62
2023/02/25 11:55:15;;;;;;;4.97;2.60;;;3.90;1.00;;;;;;5078137;28;20587;-62
2023/02/25 11:57:50;;;;;;;5.40;2.30;;;4.70;1.00;;;;;;5078474;28;20555;-62
2023/02/25 12:00:24;;;;;;;8.00;3.33;;;5.30;1.00;;;;;;5077813;28;20955;-63
2023/02/25 12:03:10;;;;;;;5.73;2.50;;;5.90;1.00;;;;;;5077243;28;20461;-63
2023/02/25 12:06:01;;;;;;;6.47;2.83;;;6.30;1.00;;;;;;5076557;28;20498;-63
2023/02/25 12:08:44;;;;;;;9.97;2.77;;;6.10;1.00;;;;;;5077312;28;20472;-63
2023/02/25 12:11:46;;;;;;;8.17;3.47;;;6.30;1.00;;;;;;5077340;28;20458;-63
2023/02/25 12:14:53;;;;;;;7.17;2.70;;;6.50;1.00;;;;;;5062300;28;20547;-63
2023/02/25 12:17:51;;;;;;;13.83;3.30;;;6.40;1.00;;;;;;5077239;28;20461;-63
2023/02/25 12:20:58;;;;;;;9.23;3.27;;;6.00;1.00;;;;;;5077415;28;20457;-63
2023/02/25 12:24:16;;;;;;;7.07;2.60;;;5.10;1.00;;;;;;5012902;28;20431;-64
2023/02/25 12:27:04;;;;;;;7.87;2.90;;;4.10;1.00;;;;;;5077400;28;20462;-63
2023/02/25 12:30:10;;;;;;;7.33;3.40;;;4.00;1.00;;;;;;5078228;28;20915;-57
2023/02/25 12:32:56;;;;;;;4.93;2.67;;;4.10;1.00;;;;;;5037121;28;20461;-61
2023/02/25 12:35:40;;;;;;;9.20;2.70;;;4.30;1.00;;;;;;5078717;28;20755;-63
2023/02/25 12:38:37;;;;;;;9.43;2.87;;;4.60;1.00;;;;;;5077809;28;20461;-62
2023/02/25 12:41:26;;;;;;;7.80;2.50;;;4.90;1.00;;;;;;5045848;28;20552;-63
2023/02/25 12:43:59;;;;;;;4.20;2.90;;;4.90;1.00;;;;;;5076400;28;20894;-63
2023/02/25 12:46:53;;;;;;;4.83;2.27;;;5.00;1.00;;;;;;5077645;28;20493;-63
2023/02/25 12:49:53;;;;;;;6.03;2.80;;;4.90;1.00;;;;;;5078179;28;20461;-63
2023/02/25 12:52:27;;;;;;;8.30;2.50;;;5.30;1.00;;;;;;5042795;28;20515;-63
2023/02/25 12:55:20;;;;;;;7.93;2.30;;;5.40;1.00;;;;;;5076592;28;20471;-63
2023/02/25 12:57:57;;;;;;;8.13;2.50;;;6.10;1.00;;;;;;5076250;28;20769;-63
2023/02/25 13:00:49;;;;;;;5.97;2.40;;;6.40;1.00;;;;;;5060397;28;20457;-64
2023/02/25 13:03:35;;;;;;;5.53;2.90;;;6.50;1.00;;;;;;5076039;28;20466;-64
2023/02/25 13:06:26;;;;;;;7.43;2.57;;;6.10;1.00;;;;;;5074975;28;20980;-63
2023/02/25 13:09:30;;;;;;;6.70;2.43;;;5.10;1.00;;;;;;5055958;28;20473;-63
2023/02/25 13:12:13;;;;;;;6.23;2.60;;;5.00;1.00;;;;;;5056063;28;20902;-63